Time;durP1;ratioP1;P1;durP2;ratioP2;P2;SDS_P1;SDS_P2;PMS_P1;PMS_P2;Temp;Humidity;BMP_temperature;BMP_pressure;BME280_temperature;BME280_humidity;BME280_pressure;Samples;Min_cycle;Max_cycle;Signal;HPM_P1;HPM_P2
2022/01/28 00:00:06;;;;;;;0.00;0.00;;;;;19.00;100647.00;;;;5089612;28;20052;-78
2022/01/28 00:05:24;;;;;;;0.00;0.00;;;;;18.70;100652.00;;;;5090264;28;20044;-79
2022/01/28 00:07:55;;;;;;;0.00;0.00;;;;;18.70;100656.00;;;;5088641;28;20044;-78
2022/01/28 00:10:27;;;;;;;0.00;0.00;;;;;18.70;100651.00;;;;5087234;28;20040;-78
2022/01/28 00:13:12;;;;;;;0.00;0.00;;;;;18.60;100655.00;;;;5088087;28;20511;-78
2022/01/28 00:40:30;;;;;;;0.00;0.00;;;;;18.00;100671.00;;;;5089081;28;20036;-78
2022/01/28 00:43:01;;;;;;;0.00;0.00;;;;;18.00;100683.00;;;;5088593;28;20079;-78
2022/01/28 00:45:31;;;;;;;0.00;0.00;;;;;18.00;100671.00;;;;5086973;28;20052;-77
2022/01/28 00:48:00;;;;;;;0.00;0.00;;;;;17.90;100669.00;;;;5087845;28;20044;-77
2022/01/28 00:50:32;;;;;;;0.00;0.00;;;;;17.80;100672.00;;;;5089333;28;20503;-78
2022/01/28 00:53:01;;;;;;;0.00;0.00;;;;;17.80;100662.00;;;;5086671;28;20522;-78
2022/01/28 00:55:30;;;;;;;0.00;0.00;;;;;17.80;100666.00;;;;5087038;28;20525;-77
2022/01/28 00:58:00;;;;;;;0.00;0.00;;;;;17.70;100669.00;;;;5088516;28;20040;-77
2022/01/28 01:00:31;;;;;;;0.00;0.00;;;;;17.70;100675.00;;;;5088404;28;20134;-77
2022/01/28 01:03:01;;;;;;;0.00;0.00;;;;;17.70;100671.00;;;;5088702;28;20050;-78
2022/01/28 01:05:33;;;;;;;0.28;0.28;;;;;17.50;100668.00;;;;5088636;28;20044;-78
2022/01/28 01:08:05;;;;;;;0.00;0.00;;;;;17.60;100665.00;;;;5088643;28;20538;-78
2022/01/28 01:10:35;;;;;;;0.00;0.00;;;;;17.60;100669.00;;;;5089196;28;20040;-78
2022/01/28 01:13:05;;;;;;;0.00;0.00;;;;;17.50;100658.00;;;;5088225;28;20044;-78
2022/01/28 01:15:39;;;;;;;0.00;0.00;;;;;17.50;100676.00;;;;5084863;28;20059;-77
2022/01/28 01:18:20;;;;;;;0.00;0.00;;;;;17.40;100676.00;;;;5085458;28;20044;-78
2022/01/28 01:21:07;;;;;;;0.00;0.00;;;;;17.40;100672.00;;;;5085406;28;20043;-77
2022/01/28 01:23:39;;;;;;;0.00;0.00;;;;;17.40;100677.00;;;;5088380;28;20079;-77
2022/01/28 01:26:11;;;;;;;0.00;0.00;;;;;17.40;100652.00;;;;5088983;28;20040;-77
2022/01/28 01:28:43;;;;;;;0.00;0.00;;;;;17.40;100665.00;;;;5087431;28;20667;-78
2022/01/28 01:31:18;;;;;;;0.00;0.00;;;;;17.40;100656.00;;;;5088976;28;20048;-77
2022/01/28 01:34:30;;;;;;;0.00;0.00;;;;;17.40;100662.00;;;;5087904;28;20089;-77
2022/01/28 01:36:41;;;;;;;0.32;0.32;;;;;17.40;100661.00;;;;5082392;28;20431;-78
2022/01/28 01:39:14;;;;;;;0.00;0.00;;;;;17.30;100662.00;;;;5088310;28;20051;-77
2022/01/28 01:41:51;;;;;;;0.00;0.00;;;;;17.30;100663.00;;;;5087374;28;20081;-77
2022/01/28 01:52:43;;;;;;;0.00;0.00;;;;;17.20;100643.00;;;;5085225;28;20052;-77
2022/01/28 01:55:13;;;;;;;0.00;0.00;;;;;17.20;100649.00;;;;5087661;28;20075;-77
2022/01/28 01:57:44;;;;;;;0.00;0.00;;;;;17.20;100642.00;;;;5087666;28;20139;-78
2022/01/28 02:00:16;;;;;;;0.00;0.00;;;;;17.20;100644.00;;;;5086976;28;20075;-77
2022/01/28 02:02:48;;;;;;;0.00;0.00;;;;;17.20;100634.00;;;;5086882;28;20109;-77
2022/01/28 02:05:19;;;;;;;0.00;0.00;;;;;17.20;100632.00;;;;5088209;28;20523;-77
2022/01/28 02:07:48;;;;;;;0.00;0.00;;;;;17.20;100641.00;;;;5088219;28;20052;-78
2022/01/28 02:10:18;;;;;;;0.00;0.00;;;;;17.20;100638.00;;;;5087141;28;20032;-77
2022/01/28 02:12:52;;;;;;;0.00;0.00;;;;;17.20;100650.00;;;;5086158;28;20120;-77
2022/01/28 02:15:22;;;;;;;0.28;0.28;;;;;17.20;100640.00;;;;5087540;28;20094;-78
2022/01/28 02:17:51;;;;;;;0.00;0.00;;;;;17.10;100648.00;;;;5086399;28;20554;-78
2022/01/28 02:20:31;;;;;;;0.00;0.00;;;;;17.10;100642.00;;;;5087699;28;20046;-78
2022/01/28 02:23:01;;;;;;;0.00;0.00;;;;;17.00;100651.00;;;;5087776;28;20066;-78
2022/01/28 02:25:33;;;;;;;;;;;;;17.10;100648.00;;;;5087784;28;20086;-78
2022/01/28 02:28:05;;;;;;;0.00;0.00;;;;;17.10;100649.00;;;;5087480;28;19946;-78
2022/01/28 02:30:35;;;;;;;0.00;0.00;;;;;17.10;100649.00;;;;5087781;28;20097;-78
2022/01/28 02:35:43;;;;;;;0.00;0.00;;;;;17.30;100642.00;;;;5087782;28;20072;-78
2022/01/28 02:38:14;;;;;;;0.00;0.00;;;;;17.40;100621.00;;;;5086884;28;20055;-78
2022/01/28 02:40:51;;;;;;;;;;;;;17.50;100641.00;;;;5087532;28;20040;-78
2022/01/28 02:45:52;;;;;;;0.00;0.00;;;;;17.60;100632.00;;;;5085162;28;20043;-78
2022/01/28 02:48:28;;;;;;;0.00;0.00;;;;;17.60;100635.00;;;;5086677;28;20119;-78
2022/01/28 02:53:54;;;;;;;0.00;0.00;;;;;17.50;100620.00;;;;5087732;28;20036;-78
2022/01/28 02:56:40;;;;;;;0.00;0.00;;;;;17.60;100639.00;;;;5086701;28;20514;-78
2022/01/28 02:59:09;;;;;;;0.00;0.00;;;;;17.50;100624.00;;;;5086397;28;20469;-78
2022/01/28 03:01:39;;;;;;;0.00;0.00;;;;;17.50;100618.00;;;;5087200;28;20036;-78
2022/01/28 03:04:12;;;;;;;0.00;0.00;;;;;17.50;100609.00;;;;5086647;28;20036;-78
2022/01/28 03:06:42;;;;;;;0.00;0.00;;;;;17.50;100623.00;;;;5086479;28;20127;-78
2022/01/28 03:09:18;;;;;;;0.00;0.00;;;;;17.50;100617.00;;;;5046808;28;21209;-78
2022/01/28 03:12:11;;;;;;;0.00;0.00;;;;;17.60;100612.00;;;;5046110;28;20037;-78
2022/01/28 03:17:51;;;;;;;0.00;0.00;;;;;17.50;100607.00;;;;5046099;28;20131;-78
2022/01/28 03:22:46;;;;;;;0.00;0.00;;;;;17.50;100608.00;;;;5044191;28;20052;-78
2022/01/28 03:25:16;;;;;;;0.00;0.00;;;;;17.40;100612.00;;;;5045720;28;20616;-78
2022/01/28 03:30:18;;;;;;;0.00;0.00;;;;;17.40;100617.00;;;;5045233;28;20029;-77
2022/01/28 03:32:48;;;;;;;0.00;0.00;;;;;17.30;100599.00;;;;5045289;28;20467;-78
2022/01/28 03:35:35;;;;;;;0.00;0.00;;;;;17.30;100620.00;;;;5045382;28;20127;-78
2022/01/28 03:38:10;;;;;;;0.00;0.00;;;;;17.30;100610.00;;;;5046374;28;20045;-78
2022/01/28 03:40:42;;;;;;;0.00;0.00;;;;;17.30;100599.00;;;;5045154;28;20052;-78
2022/01/28 03:43:11;;;;;;;0.00;0.00;;;;;17.40;100599.00;;;;5044866;28;20408;-78
2022/01/28 03:45:41;;;;;;;0.00;0.00;;;;;17.30;100592.00;;;;5046435;28;20044;-78
2022/01/28 03:48:10;;;;;;;0.00;0.00;;;;;17.30;100590.00;;;;5046490;28;20102;-78
2022/01/28 03:50:40;;;;;;;0.00;0.00;;;;;17.30;100589.00;;;;5046455;28;20044;-78
2022/01/28 03:53:11;;;;;;;0.00;0.00;;;;;17.30;100596.00;;;;5046155;28;20045;-78
2022/01/28 03:55:40;;;;;;;0.00;0.00;;;;;17.30;100583.00;;;;5046179;28;20041;-78
2022/01/28 03:58:09;;;;;;;0.00;0.00;;;;;17.30;100576.00;;;;5046279;28;20075;-78
2022/01/28 04:00:39;;;;;;;0.00;0.00;;;;;17.30;100577.00;;;;5046249;28;20470;-78
2022/01/28 04:03:36;;;;;;;0.00;0.00;;;;;17.30;100586.00;;;;5046219;28;20033;-78
2022/01/28 04:11:28;;;;;;;0.00;0.00;;;;;17.20;100568.00;;;;5086203;28;20044;-78
2022/01/28 04:14:31;;;;;;;0.00;0.00;;;;;17.20;100560.00;;;;5086381;28;20116;-78
2022/01/28 04:19:37;;;;;;;0.00;0.00;;;;;17.30;100549.00;;;;5086217;28;20498;-78
2022/01/28 04:22:06;;;;;;;3.30;3.15;;;;;17.30;100550.00;;;;5086170;28;20055;-78
2022/01/28 04:24:35;;;;;;;0.00;0.00;;;;;17.40;100542.00;;;;5086138;28;20046;-78
2022/01/28 04:27:05;;;;;;;0.00;0.00;;;;;17.50;100539.00;;;;5086079;28;20503;-77
2022/01/28 04:29:35;;;;;;;0.00;0.00;;;;;17.50;100533.00;;;;5086124;28;20051;-77
2022/01/28 04:32:05;;;;;;;0.00;0.00;;;;;17.60;100545.00;;;;5084401;28;20063;-77
2022/01/28 04:34:35;;;;;;;0.00;0.00;;;;;17.60;100527.00;;;;5086152;28;20040;-77
2022/01/28 04:40:02;;;;;;;0.00;0.00;;;;;17.80;100522.00;;;;5090041;28;20051;-77
2022/01/28 04:48:11;;;;;;;0.00;0.00;;;;;17.80;100502.00;;;;5089573;28;20040;-77
2022/01/28 04:53:40;;;;;;;0.00;0.00;;;;;17.80;100495.00;;;;5089377;28;20040;-77
2022/01/28 05:01:50;;;;;;;0.00;0.00;;;;;17.80;100498.00;;;;5089138;28;20036;-77
2022/01/28 05:07:30;;;;;;;0.00;0.00;;;;;17.80;100475.00;;;;5089045;28;20044;-77
2022/01/28 05:26:31;;;;;;;0.00;0.00;;;;;17.80;100461.00;;;;5089056;28;20047;-77
2022/01/28 05:29:01;;;;;;;0.00;0.00;;;;;17.70;100471.00;;;;5088609;28;20123;-77
2022/01/28 05:31:30;;;;;;;0.00;0.00;;;;;17.60;100457.00;;;;5088488;28;20047;-77
2022/01/28 05:34:01;;;;;;;0.00;0.00;;;;;17.50;100476.00;;;;5088647;28;20052;-77
2022/01/28 05:36:30;;;;;;;0.00;0.00;;;;;17.50;100468.00;;;;5088782;28;20798;-77
2022/01/28 05:39:00;;;;;;;0.00;0.00;;;;;17.40;100469.00;;;;5088503;28;20522;-77
2022/01/28 05:41:30;;;;;;;0.00;0.00;;;;;17.40;100455.00;;;;5070973;28;20044;-77
2022/01/28 05:44:02;;;;;;;0.00;0.00;;;;;17.40;100453.00;;;;5088560;28;20052;-77
2022/01/28 05:46:31;;;;;;;;;;;;;17.30;100462.00;;;;5086764;28;20044;-77
2022/01/28 05:49:01;;;;;;;0.00;0.00;;;;;17.30;100452.00;;;;5087048;28;20383;-77
2022/01/28 05:51:30;;;;;;;0.00;0.00;;;;;17.30;100451.00;;;;5088195;28;20036;-77
2022/01/28 05:54:00;;;;;;;0.00;0.00;;;;;17.20;100443.00;;;;5088138;28;20040;-77
2022/01/28 05:56:31;;;;;;;0.00;0.00;;;;;17.20;100445.00;;;;5088803;28;20044;-77
2022/01/28 05:59:01;;;;;;;0.00;0.00;;;;;17.20;100437.00;;;;5086852;28;20406;-77
2022/01/28 06:01:31;;;;;;;0.00;0.00;;;;;17.10;100441.00;;;;5088263;28;20044;-77
2022/01/28 06:04:00;;;;;;;0.00;0.00;;;;;17.10;100433.00;;;;5088376;28;20071;-77
2022/01/28 06:06:31;;;;;;;0.00;0.00;;;;;17.10;100437.00;;;;5088355;28;20647;-77
2022/01/28 06:09:00;;;;;;;0.00;0.00;;;;;17.10;100433.00;;;;5088291;28;20104;-77
2022/01/28 06:11:30;;;;;;;0.00;0.00;;;;;17.10;100440.00;;;;5086330;28;20040;-77
2022/01/28 06:13:59;;;;;;;0.00;0.00;;;;;17.00;100447.00;;;;5086288;28;20048;-77
2022/01/28 06:16:29;;;;;;;0.00;0.00;;;;;17.00;100445.00;;;;5087783;28;20109;-77
2022/01/28 06:18:58;;;;;;;0.00;0.00;;;;;17.00;100446.00;;;;5088198;28;20048;-77
2022/01/28 06:21:28;;;;;;;0.00;0.00;;;;;16.90;100435.00;;;;5087558;28;20044;-77
2022/01/28 06:23:57;;;;;;;0.00;0.00;;;;;17.00;100450.00;;;;5087977;28;20044;-77
2022/01/28 06:26:27;;;;;;;0.00;0.00;;;;;17.00;100444.00;;;;5087618;28;20555;-77
2022/01/28 06:28:56;;;;;;;0.00;0.00;;;;;17.10;100440.00;;;;5087264;28;20059;-77
2022/01/28 06:31:26;;;;;;;0.00;0.00;;;;;17.10;100431.00;;;;5086294;28;20533;-77
2022/01/28 06:33:55;;;;;;;0.00;0.00;;;;;17.20;100435.00;;;;5085765;28;20070;-77
2022/01/28 06:36:25;;;;;;;0.00;0.00;;;;;17.10;100432.00;;;;5087546;28;20495;-78
2022/01/28 06:38:54;;;;;;;0.00;0.00;;;;;17.10;100421.00;;;;5087947;28;20066;-78
2022/01/28 06:41:23;;;;;;;0.45;0.45;;;;;17.10;100426.00;;;;5086977;28;20051;-78
2022/01/28 06:43:53;;;;;;;0.00;0.00;;;;;17.10;100433.00;;;;5085416;28;20036;-78
2022/01/28 06:46:22;;;;;;;0.00;0.00;;;;;17.20;100425.00;;;;5086815;28;20051;-78
2022/01/28 06:48:52;;;;;;;0.00;0.00;;;;;17.20;100427.00;;;;5087094;28;20105;-78
2022/01/28 06:51:21;;;;;;;0.00;0.00;;;;;17.10;100437.00;;;;5087314;28;20048;-78
2022/01/28 06:53:50;;;;;;;0.00;0.00;;;;;17.10;100419.00;;;;5087759;28;21131;-78
2022/01/28 06:56:20;;;;;;;0.00;0.00;;;;;17.00;100421.00;;;;5087454;28;20105;-78
2022/01/28 06:58:49;;;;;;;0.00;0.00;;;;;17.00;100438.00;;;;5086123;28;20040;-78
2022/01/28 07:01:23;;;;;;;0.00;0.00;;;;;17.10;100433.00;;;;5086552;28;20097;-78
2022/01/28 07:03:53;;;;;;;0.00;0.00;;;;;17.00;100432.00;;;;5086705;28;20051;-78
2022/01/28 07:06:23;;;;;;;0.00;0.00;;;;;16.90;100427.00;;;;5087097;28;20055;-78
2022/01/28 07:08:52;;;;;;;0.00;0.00;;;;;16.90;100426.00;;;;5086671;28;20052;-78
2022/01/28 07:11:22;;;;;;;0.00;0.00;;;;;16.90;100436.00;;;;5086646;28;20044;-78
2022/01/28 07:13:51;;;;;;;0.00;0.00;;;;;16.80;100421.00;;;;5087354;28;20445;-78
2022/01/28 07:16:20;;;;;;;0.00;0.00;;;;;16.80;100438.00;;;;5087169;28;20097;-78
2022/01/28 07:18:50;;;;;;;0.00;0.00;;;;;16.70;100438.00;;;;5087473;28;20517;-78
2022/01/28 07:21:19;;;;;;;0.00;0.00;;;;;16.60;100432.00;;;;5087005;28;20437;-78
2022/01/28 07:23:49;;;;;;;0.00;0.00;;;;;16.60;100432.00;;;;5086444;28;20043;-78
2022/01/28 07:26:18;;;;;;;0.00;0.00;;;;;16.50;100433.00;;;;5086697;28;20081;-78
2022/01/28 07:28:49;;;;;;;0.00;0.00;;;;;16.50;100430.00;;;;5086812;28;20059;-78
2022/01/28 07:31:19;;;;;;;0.00;0.00;;;;;16.40;100443.00;;;;5086819;28;20055;-78
2022/01/28 07:33:48;;;;;;;0.00;0.00;;;;;16.40;100447.00;;;;5086467;28;20040;-78
2022/01/28 07:36:18;;;;;;;0.00;0.00;;;;;16.40;100428.00;;;;5086263;28;20044;-78
2022/01/28 07:38:47;;;;;;;0.00;0.00;;;;;16.40;100441.00;;;;5085186;28;20491;-78
2022/01/28 07:41:17;;;;;;;0.00;0.00;;;;;16.40;100443.00;;;;5087678;28;20047;-78
2022/01/28 07:43:48;;;;;;;0.00;0.00;;;;;16.30;100440.00;;;;5087506;28;20040;-78
2022/01/28 07:46:17;;;;;;;;;;;;;16.30;100454.00;;;;5087231;28;20516;-78
2022/01/28 07:48:47;;;;;;;0.00;0.00;;;;;16.30;100442.00;;;;5086148;28;19935;-78
2022/01/28 07:51:17;;;;;;;0.00;0.00;;;;;16.30;100429.00;;;;5086215;28;20044;-79
2022/01/28 07:53:47;;;;;;;0.00;0.00;;;;;16.40;100435.00;;;;5086699;28;20058;-78
2022/01/28 07:56:17;;;;;;;0.00;0.00;;;;;16.30;100435.00;;;;5086521;28;20540;-79
2022/01/28 07:58:46;;;;;;;0.00;0.00;;;;;16.30;100451.00;;;;5086981;28;20059;-79
2022/01/28 08:01:16;;;;;;;0.00;0.00;;;;;16.30;100456.00;;;;5084827;28;20056;-79
2022/01/28 08:03:45;;;;;;;0.00;0.00;;;;;16.30;100450.00;;;;5087214;28;20048;-78
2022/01/28 08:06:15;;;;;;;0.00;0.00;;;;;16.30;100458.00;;;;5086590;28;20077;-79
2022/01/28 08:08:44;;;;;;;0.00;0.00;;;;;16.30;100456.00;;;;5088337;28;20052;-79
2022/01/28 08:11:13;;;;;;;0.00;0.00;;;;;16.30;100461.00;;;;5090097;28;20033;-79
2022/01/28 08:13:43;;;;;;;0.00;0.00;;;;;16.30;100447.00;;;;5089762;28;20628;-79
2022/01/28 08:16:12;;;;;;;0.00;0.00;;;;;16.30;100456.00;;;;5088720;28;20063;-79
2022/01/28 08:18:41;;;;;;;0.00;0.00;;;;;16.30;100455.00;;;;5090034;28;20445;-79
2022/01/28 08:21:11;;;;;;;0.00;0.00;;;;;16.30;100446.00;;;;5088803;28;20118;-79
2022/01/28 08:23:40;;;;;;;0.00;0.00;;;;;16.40;100457.00;;;;5089510;28;20096;-78
2022/01/28 08:26:11;;;;;;;0.00;0.00;;;;;16.50;100458.00;;;;5089671;28;20487;-79
2022/01/28 08:28:41;;;;;;;0.00;0.00;;;;;16.60;100453.00;;;;5090782;28;20042;-79
2022/01/28 08:31:11;;;;;;;0.00;0.00;;;;;16.60;100455.00;;;;5089969;28;20044;-78
2022/01/28 08:33:41;;;;;;;0.00;0.00;;;;;16.60;100442.00;;;;5089762;28;20032;-79
2022/01/28 08:36:11;;;;;;;0.00;0.00;;;;;16.70;100455.00;;;;5089773;28;20040;-79
2022/01/28 08:38:44;;;;;;;0.00;0.00;;;;;16.70;100463.00;;;;5087927;28;20560;-79
2022/01/28 08:41:14;;;;;;;0.00;0.00;;;;;16.70;100450.00;;;;5089324;28;20090;-79
2022/01/28 08:43:43;;;;;;;0.00;0.00;;;;;16.70;100458.00;;;;5089561;28;20503;-79
2022/01/28 08:46:13;;;;;;;0.00;0.00;;;;;16.70;100463.00;;;;5089743;28;20063;-79
2022/01/28 08:48:42;;;;;;;0.00;0.00;;;;;16.70;100460.00;;;;5089883;28;20439;-78
2022/01/28 08:51:12;;;;;;;0.00;0.00;;;;;16.70;100469.00;;;;5089627;28;20044;-78
2022/01/28 08:53:42;;;;;;;0.00;0.00;;;;;16.70;100483.00;;;;5089534;28;20048;-78
2022/01/28 08:56:12;;;;;;;0.00;0.00;;;;;16.80;100476.00;;;;5089389;28;20039;-79
2022/01/28 08:58:41;;;;;;;0.00;0.00;;;;;16.80;100488.00;;;;5087397;28;20051;-79
2022/01/28 09:01:11;;;;;;;0.00;0.00;;;;;16.80;100482.00;;;;5088985;28;20067;-79
2022/01/28 09:03:41;;;;;;;0.00;0.00;;;;;16.90;100467.00;;;;5088891;28;20712;-78
2022/01/28 09:06:10;;;;;;;0.00;0.00;;;;;16.90;100478.00;;;;5089093;28;20050;-79
2022/01/28 09:08:41;;;;;;;0.00;0.00;;;;;17.00;100484.00;;;;5089242;28;20052;-79
2022/01/28 09:13:52;;;;;;;0.00;0.00;;;;;17.30;100493.00;;;;5088800;28;20286;-78
2022/01/28 09:16:22;;;;;;;0.00;0.00;;;;;17.30;100485.00;;;;5089176;28;20388;-78
2022/01/28 09:18:51;;;;;;;0.00;0.00;;;;;17.40;100498.00;;;;5088885;28;20127;-79
2022/01/28 09:21:21;;;;;;;0.00;0.00;;;;;17.50;100498.00;;;;5087914;28;20087;-78
2022/01/28 09:23:50;;;;;;;0.00;0.00;;;;;17.50;100497.00;;;;5087351;28;20047;-78
2022/01/28 09:26:24;;;;;;;0.00;0.00;;;;;17.60;100493.00;;;;5088585;28;20048;-78
2022/01/28 09:28:54;;;;;;;0.00;0.00;;;;;17.70;100496.00;;;;5086977;28;20047;-77
2022/01/28 09:31:24;;;;;;;0.00;0.00;;;;;17.80;100486.00;;;;5088154;28;20513;-78
2022/01/28 09:33:54;;;;;;;0.00;0.00;;;;;17.90;100492.00;;;;5071171;28;20056;-78
2022/01/28 09:36:23;;;;;;;0.00;0.00;;;;;18.00;100481.00;;;;5088294;28;20059;-78
2022/01/28 09:38:53;;;;;;;0.00;0.00;;;;;18.00;100492.00;;;;5088521;28;20036;-78
2022/01/28 09:41:23;;;;;;;0.00;0.00;;;;;18.20;100494.00;;;;5088199;28;20040;-78
2022/01/28 09:43:52;;;;;;;0.00;0.00;;;;;18.30;100480.00;;;;5087061;28;20047;-78
2022/01/28 09:46:22;;;;;;;0.00;0.00;;;;;18.40;100492.00;;;;5087940;28;20617;-78
2022/01/28 09:48:51;;;;;;;0.00;0.00;;;;;18.60;100504.00;;;;5088723;28;20047;-78
2022/01/28 09:51:21;;;;;;;0.00;0.00;;;;;18.70;100491.00;;;;5088614;28;20048;-79
2022/01/28 09:53:51;;;;;;;0.00;0.00;;;;;18.70;100482.00;;;;5087422;28;20067;-76
2022/01/28 09:56:20;;;;;;;0.00;0.00;;;;;18.90;100486.00;;;;5088306;28;20054;-77
2022/01/28 09:58:50;;;;;;;0.00;0.00;;;;;19.00;100481.00;;;;5087979;28;20040;-78
2022/01/28 10:01:19;;;;;;;0.00;0.00;;;;;19.10;100510.00;;;;5088096;28;20422;-78
2022/01/28 10:04:00;;;;;;;0.00;0.00;;;;;19.20;100508.00;;;;5088244;28;20044;-77
2022/01/28 10:06:34;;;;;;;0.00;0.00;;;;;19.20;100485.00;;;;5088294;28;20533;-78
2022/01/28 10:09:15;;;;;;;0.00;0.00;;;;;19.20;100499.00;;;;5087937;28;20052;-78
2022/01/28 10:11:48;;;;;;;0.00;0.00;;;;;19.30;100511.00;;;;5087772;28;20075;-79
2022/01/28 10:14:23;;;;;;;1.00;0.98;;;;;19.30;100500.00;;;;5087822;28;20040;-78
2022/01/28 10:16:56;;;;;;;0.00;0.00;;;;;19.30;100502.00;;;;5085386;28;20048;-78
2022/01/28 10:19:36;;;;;;;0.00;0.00;;;;;19.40;100484.00;;;;5088130;28;20058;-78
2022/01/28 10:22:18;;;;;;;0.00;0.00;;;;;19.50;100506.00;;;;5087913;28;20040;-78
2022/01/28 10:25:25;;;;;;;0.00;0.00;;;;;19.80;100496.00;;;;5086722;28;20670;-79
2022/01/28 10:28:07;;;;;;;0.00;0.00;;;;;20.20;100490.00;;;;5088166;28;20093;-77
2022/01/28 10:30:43;;;;;;;0.00;0.00;;;;;20.40;100485.00;;;;5086669;28;20076;-78
2022/01/28 10:33:21;;;;;;;0.00;0.00;;;;;20.40;100486.00;;;;5087486;28;20046;-78
2022/01/28 10:35:55;;;;;;;0.00;0.00;;;;;21.00;100493.00;;;;5087373;28;20055;-78
2022/01/28 10:38:30;;;;;;;0.00;0.00;;;;;20.90;100500.00;;;;5086209;28;20514;-78
2022/01/28 10:41:10;;;;;;;0.00;0.00;;;;;21.20;100479.00;;;;5087817;28;20071;-78
2022/01/28 10:43:54;;;;;;;0.00;0.00;;;;;23.20;100484.00;;;;5087383;28;20090;-78
2022/01/28 10:46:35;;;;;;;0.00;0.00;;;;;22.10;100493.00;;;;5086873;28;20043;-78
2022/01/28 10:49:08;;;;;;;0.00;0.00;;;;;21.30;100502.00;;;;5087155;28;20039;-79
2022/01/28 10:51:44;;;;;;;0.00;0.00;;;;;20.90;100512.00;;;;5087789;28;20457;-78
2022/01/28 10:54:22;;;;;;;0.00;0.00;;;;;20.90;100508.00;;;;5086299;28;20475;-77
2022/01/28 10:57:04;;;;;;;0.00;0.00;;;;;20.70;100518.00;;;;5086923;28;20082;-76
2022/01/28 10:59:37;;;;;;;0.00;0.00;;;;;20.90;100516.00;;;;5086918;28;20738;-77
2022/01/28 11:02:07;;;;;;;0.00;0.00;;;;;21.10;100493.00;;;;5086152;28;20787;-76
2022/01/28 11:04:42;;;;;;;0.00;0.00;;;;;21.50;100488.00;;;;5086736;28;20048;-77
2022/01/28 11:07:13;;;;;;;0.00;0.00;;;;;23.20;100450.00;;;;5086863;28;20052;-76
2022/01/28 11:09:43;;;;;;;0.00;0.00;;;;;22.60;100498.00;;;;5087002;28;20039;-77
2022/01/28 11:12:16;;;;;;;0.13;0.13;;;;;22.40;100493.00;;;;5086766;28;20080;-76
2022/01/28 11:14:45;;;;;;;0.00;0.00;;;;;22.40;100510.00;;;;5087520;28;20119;-77
2022/01/28 11:17:17;;;;;;;0.00;0.00;;;;;22.20;100498.00;;;;5085466;28;20511;-77
2022/01/28 11:19:48;;;;;;;0.00;0.00;;;;;22.50;100493.00;;;;5086321;28;20047;-77
2022/01/28 11:23:00;;;;;;;0.00;0.00;;;;;24.00;100405.00;;;;5085994;28;20105;-77
2022/01/28 11:25:45;;;;;;;1.45;1.35;;;;;27.90;100382.00;;;;5084419;28;20074;-77
2022/01/28 11:28:15;;;;;;;0.00;0.00;;;;;24.80;100468.00;;;;5086784;28;20040;-77
2022/01/28 11:30:50;;;;;;;0.00;0.00;;;;;29.50;100247.00;;;;5087038;28;20043;-78
2022/01/28 11:33:20;;;;;;;0.00;0.00;;;;;32.40;100252.00;;;;5086731;28;20090;-77
2022/01/28 11:35:53;;;;;;;0.00;0.00;;;;;29.00;100447.00;;;;5086403;28;20044;-77
2022/01/28 11:38:30;;;;;;;0.00;0.00;;;;;31.10;100319.00;;;;5087134;28;20044;-80
2022/01/28 11:41:24;;;;;;;0.00;0.00;;;;;32.40;100347.00;;;;5086763;28;20537;-77
2022/01/28 11:43:56;;;;;;;0.00;0.00;;;;;28.80;100367.00;;;;5088803;28;20044;-77
2022/01/28 11:46:31;;;;;;;0.00;0.00;;;;;30.40;100386.00;;;;5090526;28;20401;-76
2022/01/28 11:49:05;;;;;;;0.00;0.00;;;;;30.30;100271.00;;;;5090568;28;20403;-77
2022/01/28 11:51:37;;;;;;;0.00;0.00;;;;;31.00;100420.00;;;;5090697;28;20033;-77
2022/01/28 11:54:15;;;;;;;0.00;0.00;;;;;29.40;100455.00;;;;5090423;28;20414;-78
2022/01/28 11:56:56;;;;;;;0.00;0.00;;;;;30.00;100276.00;;;;5090153;28;20569;-77
2022/01/28 11:59:27;;;;;;;0.00;0.00;;;;;29.30;100355.00;;;;5090021;28;20058;-77
2022/01/28 12:02:00;;;;;;;0.00;0.00;;;;;26.80;100507.00;;;;5090383;28;20036;-77
2022/01/28 12:04:31;;;;;;;0.00;0.00;;;;;25.60;100499.00;;;;5090194;28;20105;-77
2022/01/28 12:07:03;;;;;;;2.83;0.30;;;;;24.90;100504.00;;;;5089831;28;20050;-76
2022/01/28 12:09:35;;;;;;;0.00;0.00;;;;;24.80;100502.00;;;;5089279;28;20043;-76
2022/01/28 12:12:10;;;;;;;0.10;0.10;;;;;25.10;100472.00;;;;5090054;28;20513;-76
2022/01/28 12:15:10;;;;;;;0.00;0.00;;;;;24.50;100528.00;;;;5090208;28;20549;-77
2022/01/28 12:17:45;;;;;;;0.00;0.00;;;;;24.00;100516.00;;;;5089690;28;20127;-76
2022/01/28 12:20:43;;;;;;;0.00;0.00;;;;;24.40;100517.00;;;;5090299;28;20040;-76
2022/01/28 12:23:12;;;;;;;0.00;0.00;;;;;24.60;100537.00;;;;5089673;28;20384;-77
2022/01/28 12:25:42;;;;;;;0.00;0.00;;;;;24.60;100530.00;;;;5089715;28;20054;-74
2022/01/28 12:28:27;;;;;;;0.00;0.00;;;;;24.30;100523.00;;;;5089282;28;20055;-77
2022/01/28 12:31:04;;;;;;;0.00;0.00;;;;;24.40;100529.00;;;;5089812;28;20497;-77
2022/01/28 12:33:38;;;;;;;0.00;0.00;;;;;24.60;100523.00;;;;5089923;28;20043;-77
2022/01/28 12:36:15;;;;;;;0.00;0.00;;;;;24.50;100536.00;;;;5089701;28;20052;-78
2022/01/28 12:41:51;;;;;;;0.00;0.00;;;;;24.40;100520.00;;;;5090135;28;20036;-79
2022/01/28 12:44:22;;;;;;;0.00;0.00;;;;;24.30;100526.00;;;;5089726;28;20093;-81
2022/01/28 12:47:03;;;;;;;0.00;0.00;;;;;24.80;100499.00;;;;5089458;28;20048;-76
2022/01/28 12:49:36;;;;;;;0.00;0.00;;;;;25.60;100492.00;;;;5089547;28;20403;-77
2022/01/28 12:52:08;;;;;;;0.00;0.00;;;;;25.50;100518.00;;;;5089884;28;20039;-75
2022/01/28 12:54:46;;;;;;;0.00;0.00;;;;;25.30;100526.00;;;;5088448;28;20036;-76
2022/01/28 12:57:19;;;;;;;0.00;0.00;;;;;25.10;100527.00;;;;5088989;28;20047;-76
2022/01/28 12:59:49;;;;;;;0.00;0.00;;;;;25.40;100482.00;;;;5089258;28;20652;-76
2022/01/28 13:02:20;;;;;;;0.00;0.00;;;;;25.60;100513.00;;;;5089184;28;20048;-77
2022/01/28 13:10:31;;;;;;;0.00;0.00;;;;;25.90;100496.00;;;;5089172;28;20664;-77
2022/01/28 13:13:09;;;;;;;0.00;0.00;;;;;27.10;100463.00;;;;5089238;28;20097;-79
2022/01/28 13:15:40;;;;;;;0.00;0.00;;;;;27.70;100443.00;;;;5089472;28;20054;-77
2022/01/28 13:18:09;;;;;;;0.00;0.00;;;;;27.70;100410.00;;;;5089184;28;20644;-77
2022/01/28 13:20:42;;;;;;;0.00;0.00;;;;;28.40;100443.00;;;;5088650;28;20090;-78
2022/01/28 13:23:13;;;;;;;0.68;0.43;;;;;27.80;100462.00;;;;5088467;28;20040;-78
2022/01/28 13:25:42;;;;;;;0.10;0.10;;;;;27.50;100471.00;;;;5088458;28;20047;-77
2022/01/28 13:28:19;;;;;;;0.00;0.00;;;;;27.40;100487.00;;;;5088199;28;20479;-77
2022/01/28 13:30:56;;;;;;;0.10;0.10;;;;;27.80;100485.00;;;;5089149;28;20097;-76
2022/01/28 13:33:30;;;;;;;4.95;0.30;;;;;28.10;100483.00;;;;5088916;28;20040;-77
2022/01/28 13:36:02;;;;;;;0.00;0.00;;;;;27.90;100467.00;;;;5088501;28;20085;-77
2022/01/28 13:38:39;;;;;;;0.00;0.00;;;;;29.60;100444.00;;;;5089255;28;20048;-77
2022/01/28 13:41:24;;;;;;;0.00;0.00;;;;;29.90;100459.00;;;;5088851;28;20059;-78
2022/01/28 13:43:59;;;;;;;1.42;0.15;;;;;28.10;100494.00;;;;5088503;28;20518;-78
2022/01/28 13:46:34;;;;;;;0.00;0.00;;;;;27.10;100489.00;;;;5087915;28;20040;-78
2022/01/28 13:49:16;;;;;;;0.00;0.00;;;;;27.20;100487.00;;;;5088338;28;20094;-77
2022/01/28 13:51:45;;;;;;;0.00;0.00;;;;;27.60;100471.00;;;;5088507;28;20040;-79
2022/01/28 13:54:20;;;;;;;0.00;0.00;;;;;28.20;100466.00;;;;5088553;28;20048;-78
2022/01/28 13:56:50;;;;;;;0.00;0.00;;;;;28.20;100483.00;;;;5088229;28;20410;-76
2022/01/28 13:59:24;;;;;;;0.00;0.00;;;;;27.90;100486.00;;;;5086077;28;20434;-77
2022/01/28 14:01:59;;;;;;;0.20;0.20;;;;;28.20;100486.00;;;;5087262;28;20060;-77
2022/01/28 14:04:38;;;;;;;0.00;0.00;;;;;27.60;100502.00;;;;5088456;28;20032;-77
2022/01/28 14:07:12;;;;;;;0.10;0.00;;;;;26.60;100506.00;;;;5087156;28;20048;-77
2022/01/28 14:09:44;;;;;;;0.00;0.00;;;;;26.30;100512.00;;;;5086441;28;20043;-77
2022/01/28 14:12:52;;;;;;;0.00;0.00;;;;;26.80;100493.00;;;;5088059;28;20070;-77
2022/01/28 14:15:33;;;;;;;3.50;0.65;;;;;27.10;100477.00;;;;5087741;28;20044;-77
2022/01/28 14:18:03;;;;;;;1.35;0.10;;;;;27.70;100496.00;;;;5087805;28;20582;-78
2022/01/28 14:20:33;;;;;;;0.00;0.00;;;;;27.70;100463.00;;;;5087270;28;20043;-79
2022/01/28 14:23:02;;;;;;;0.00;0.00;;;;;28.20;100443.00;;;;5087883;28;20055;-80